Time;durP1;ratioP1;P1;durP2;ratioP2;P2;SDS_P1;SDS_P2;PMS_P1;PMS_P2;Temp;Humidity;BMP_temperature;BMP_pressure;BME280_temperature;BME280_humidity;BME280_pressure;Samples;Min_cycle;Max_cycle;Signal;HPM_P1;HPM_P2
2022/07/21 00:01:37;;;;;;;11.48;8.10;;;;;;;20.00;59.00;100752.81;1771073;80;21940;-75
2022/07/21 00:04:04;;;;;;;11.18;8.63;;;;;;;19.95;58.85;100752.31;1734581;81;21025;-75
2022/07/21 00:06:31;;;;;;;10.98;7.92;;;;;;;19.90;58.84;100750.45;1783569;80;21007;-75
2022/07/21 00:08:58;;;;;;;9.90;7.25;;;;;;;19.86;58.78;100745.45;1743108;81;21086;-75
2022/07/21 00:11:25;;;;;;;11.05;7.53;;;;;;;19.80;58.78;100743.59;1777015;80;21015;-74
2022/07/21 00:13:51;;;;;;;10.30;7.92;;;;;;;19.77;58.88;100742.96;1745726;81;21485;-75
2022/07/21 00:16:18;;;;;;;10.55;7.62;;;;;;;19.73;58.93;100743.66;1753165;81;21047;-74
2022/07/21 00:18:45;;;;;;;9.78;7.22;;;;;;;19.69;58.91;100742.16;1732374;81;21050;-75
2022/07/21 00:21:15;;;;;;;8.90;8.00;;;;;;;19.65;58.91;100741.98;1746328;81;20931;-75
2022/07/21 00:23:42;;;;;;;10.72;7.53;;;;;;;19.60;58.97;100746.28;1756620;80;21042;-74
2022/07/21 00:26:09;;;;;;;7.95;7.15;;;;;;;19.57;59.10;100752.30;1731657;81;21227;-74
2022/07/21 00:28:36;;;;;;;12.95;8.10;;;;;;;19.51;59.15;100744.27;1732158;81;21480;-74
2022/07/21 00:31:03;;;;;;;10.68;8.28;;;;;;;19.50;59.37;100751.00;1732203;81;21600;-74
2022/07/21 00:33:31;;;;;;;8.65;7.00;;;;;;;19.46;59.52;100751.70;1756691;81;21481;-74
2022/07/21 00:35:58;;;;;;;10.15;7.70;;;;;;;19.44;59.59;100746.96;1782317;80;21088;-74
2022/07/21 00:38:24;;;;;;;9.58;7.75;;;;;;;19.41;59.69;100750.31;1765363;80;21152;-74
2022/07/21 00:40:51;;;;;;;10.38;7.80;;;;;;;19.37;59.77;100742.55;1771784;80;21512;-74
2022/07/21 00:43:18;;;;;;;9.15;7.42;;;;;;;19.34;59.83;100743.22;1746012;81;21031;-74
2022/07/21 00:45:45;;;;;;;10.63;7.95;;;;;;;19.31;60.00;100740.29;1754957;80;21067;-74
2022/07/21 00:48:13;;;;;;;8.58;7.53;;;;;;;19.27;60.15;100734.83;1751651;80;21008;-74
2022/07/21 00:50:40;;;;;;;9.78;7.75;;;;;;;19.24;60.31;100735.52;1736390;81;21842;-74
2022/07/21 00:53:07;;;;;;;13.05;8.58;;;;;;;19.20;60.64;100741.50;1771211;80;21551;-74
2022/07/21 00:55:34;;;;;;;9.78;7.53;;;;;;;19.16;61.11;100742.67;1732195;81;21085;-74
2022/07/21 00:58:01;;;;;;;9.40;7.75;;;;;;;19.14;61.42;100741.44;1741178;81;21082;-74
2022/07/21 01:00:30;;;;;;;8.65;7.70;;;;;;;19.11;61.84;100740.80;1765377;80;21015;-74
2022/07/21 01:02:58;;;;;;;12.23;7.83;;;;;;;19.08;62.27;100742.34;1731122;81;21135;-74
2022/07/21 01:05:25;;;;;;;13.45;8.08;;;;;;;19.05;62.70;100747.38;1751051;81;21544;-74
2022/07/21 01:07:55;;;;;;;9.30;8.10;;;;;;;19.02;62.86;100748.92;1737895;81;21006;-74
2022/07/21 01:10:24;;;;;;;10.40;7.72;;;;;;;18.98;62.95;100742.58;1732280;81;21041;-74
2022/07/21 01:12:52;;;;;;;9.45;8.10;;;;;;;18.92;62.97;100747.33;1733493;81;21015;-74
2022/07/21 01:15:20;;;;;;;11.03;8.40;;;;;;;18.87;62.86;100754.78;1775241;80;21125;-74
2022/07/21 01:17:48;;;;;;;9.83;7.78;;;;;;;18.84;62.84;100752.30;1730770;81;21055;-74
2022/07/21 01:20:18;;;;;;;10.03;7.85;;;;;;;18.79;62.76;100751.78;1754062;81;21014;-74
2022/07/21 01:22:50;;;;;;;14.90;7.78;;;;;;;18.73;62.74;100753.00;1732386;81;21037;-74
2022/07/21 01:25:19;;;;;;;10.55;7.92;;;;;;;18.68;62.73;100753.77;1751915;81;21118;-74
2022/07/21 01:27:46;;;;;;;14.73;8.60;;;;;;;18.62;62.77;100754.63;1769781;80;22058;-74
2022/07/21 01:30:14;;;;;;;9.28;7.50;;;;;;;18.56;62.85;100749.73;1752339;81;21349;-74
2022/07/21 01:32:44;;;;;;;10.43;7.22;;;;;;;18.53;62.83;100752.09;1762440;81;21023;-74
2022/07/21 01:35:14;;;;;;;9.10;7.10;;;;;;;18.48;62.83;100753.74;1751113;81;21040;-74
2022/07/21 01:37:46;;;;;;;9.80;7.42;;;;;;;18.43;62.83;100747.88;1741806;81;21517;-75
2022/07/21 01:43:00;;;;;;;9.65;7.75;;;;;;;18.33;62.87;100751.21;1742785;81;21495;-74
2022/07/21 01:45:28;;;;;;;8.43;7.45;;;;;;;18.26;62.96;100743.66;1765823;80;21033;-74
2022/07/21 01:47:56;;;;;;;10.53;8.03;;;;;;;18.21;62.87;100743.09;1769520;80;21763;-74
2022/07/21 01:50:26;;;;;;;9.10;7.55;;;;;;;18.20;62.98;100741.36;1733823;81;21070;-74
2022/07/21 01:52:55;;;;;;;10.03;7.12;;;;;;;18.20;62.96;100740.52;1765683;80;21182;-74
2022/07/21 01:55:25;;;;;;;11.95;7.53;;;;;;;18.16;63.03;100737.22;1754179;80;21022;-74
2022/07/21 01:57:52;;;;;;;11.20;8.28;;;;;;;18.14;63.08;100740.44;1743170;81;21043;-74
2022/07/21 02:00:19;;;;;;;10.90;7.90;;;;;;;18.11;63.15;100743.77;1749043;81;21043;-74
2022/07/21 02:02:47;;;;;;;11.00;7.75;;;;;;;18.11;63.29;100747.74;1756866;81;21032;-74
2022/07/21 02:05:14;;;;;;;8.55;7.65;;;;;;;18.08;63.50;100743.48;1762365;81;21115;-74
2022/07/21 02:07:41;;;;;;;13.13;8.30;;;;;;;18.05;63.50;100744.52;1751760;81;21008;-74
2022/07/21 02:10:09;;;;;;;12.37;8.33;;;;;;;18.01;63.66;100737.72;1762399;81;21453;-74
2022/07/21 02:12:36;;;;;;;9.10;8.18;;;;;;;17.99;63.87;100733.45;1738097;81;21078;-75
2022/07/21 02:15:04;;;;;;;10.98;9.23;;;;;;;17.98;64.17;100733.06;1744830;81;21032;-74
2022/07/21 02:17:31;;;;;;;13.13;9.65;;;;;;;17.93;64.58;100730.72;1762542;81;21099;-75
2022/07/21 02:19:58;;;;;;;11.35;8.98;;;;;;;17.90;64.91;100725.57;1762278;81;21039;-74
2022/07/21 02:22:25;;;;;;;10.98;9.28;;;;;;;17.88;65.22;100727.97;1762665;81;21047;-74
2022/07/21 02:24:52;;;;;;;10.90;8.93;;;;;;;17.83;65.56;100730.90;1762383;81;21008;-74
2022/07/21 02:27:19;;;;;;;11.28;8.50;;;;;;;17.83;65.90;100731.74;1745520;80;21062;-74
2022/07/21 02:29:46;;;;;;;12.03;9.43;;;;;;;17.88;66.01;100734.60;1755629;81;21106;-74
2022/07/21 02:32:13;;;;;;;14.07;8.85;;;;;;;17.90;66.00;100729.55;1738822;81;21680;-74
2022/07/21 02:34:40;;;;;;;12.28;8.83;;;;;;;17.87;65.92;100723.12;1755387;81;21086;-74
2022/07/21 02:37:07;;;;;;;11.03;8.95;;;;;;;17.81;65.88;100720.38;1751274;81;21011;-74
2022/07/21 02:39:34;;;;;;;13.70;8.80;;;;;;;17.75;65.96;100719.41;1752555;81;21028;-74
2022/07/21 02:42:01;;;;;;;11.85;9.38;;;;;;;17.70;66.14;100723.28;1762314;81;21086;-77
2022/07/21 02:44:30;;;;;;;10.20;8.30;;;;;;;17.67;66.32;100726.13;1762264;81;21039;-74
2022/07/21 02:46:57;;;;;;;11.65;9.08;;;;;;;17.63;66.42;100726.80;1762309;81;21016;-75
2022/07/21 02:49:24;;;;;;;12.55;8.73;;;;;;;17.58;66.57;100724.42;1762331;81;20972;-75
2022/07/21 02:51:51;;;;;;;12.25;9.85;;;;;;;17.56;66.66;100732.08;1762405;81;21495;-74
2022/07/21 02:54:18;;;;;;;12.28;8.73;;;;;;;17.51;66.89;100732.83;1762405;81;21905;-75
2022/07/21 02:56:45;;;;;;;9.73;8.18;;;;;;;17.52;66.99;100738.53;1749948;81;20987;-74
2022/07/21 02:59:12;;;;;;;16.23;8.25;;;;;;;17.48;66.99;100731.22;1762516;81;21043;-75
2022/07/21 03:01:39;;;;;;;12.80;6.92;;;;;;;17.51;66.71;100727.05;1762316;81;20993;-74
2022/07/21 03:04:06;;;;;;;10.55;8.13;;;;;;;17.51;66.71;100727.05;1757230;80;21106;-78
2022/07/21 03:06:34;;;;;;;10.00;8.30;;;;;;;17.56;66.85;100729.44;1761950;81;21119;-77
2022/07/21 03:09:01;;;;;;;12.50;8.88;;;;;;;17.50;66.67;100728.01;1789206;78;21019;-75
2022/07/21 03:11:28;;;;;;;11.40;8.15;;;;;;;17.45;66.68;100730.56;1779388;80;21495;-75
2022/07/21 03:13:55;;;;;;;9.83;8.55;;;;;;;17.41;66.72;100729.91;1742970;81;21431;-74
2022/07/21 03:16:22;;;;;;;9.25;8.23;;;;;;;17.37;66.61;100732.34;1762147;81;21012;-76
2022/07/21 03:18:49;;;;;;;11.60;7.72;;;;;;;17.28;66.63;100720.50;1762027;81;21961;-75
2022/07/21 03:21:16;;;;;;;9.25;8.28;;;;;;;17.24;66.74;100719.47;1761308;81;21048;-75
2022/07/21 03:23:45;;;;;;;9.98;8.10;;;;;;;17.20;66.79;100721.91;1762215;81;21493;-75
2022/07/21 03:26:14;;;;;;;13.25;8.05;;;;;;;17.16;66.82;100719.44;1752063;80;21052;-77
2022/07/21 03:28:43;;;;;;;11.73;8.58;;;;;;;17.13;66.81;100720.95;1752794;80;20997;-75
2022/07/21 03:31:10;;;;;;;9.08;8.05;;;;;;;17.13;66.92;100723.60;1752863;81;21793;-74
2022/07/21 03:33:37;;;;;;;11.50;8.45;;;;;;;17.11;66.79;100723.30;1746099;81;21005;-74
2022/07/21 03:36:04;;;;;;;12.98;8.55;;;;;;;17.09;67.05;100726.52;1753113;81;21059;-75
2022/07/21 03:38:31;;;;;;;11.93;8.40;;;;;;;17.04;67.05;100717.98;1750707;81;21028;-75
2022/07/21 03:40:58;;;;;;;11.53;8.48;;;;;;;17.04;67.05;100717.98;1748851;81;21493;-75
2022/07/21 03:43:25;;;;;;;11.60;8.40;;;;;;;17.08;67.20;100722.17;1752372;81;21753;-76
2022/07/21 03:45:52;;;;;;;11.48;8.00;;;;;;;17.11;67.29;100721.50;1751058;81;21044;-78
2022/07/21 03:48:19;;;;;;;12.20;8.15;;;;;;;17.18;68.16;100733.91;1750718;81;21504;-74
2022/07/21 03:50:46;;;;;;;9.75;8.18;;;;;;;17.26;68.64;100726.35;1751840;81;20997;-78
2022/07/21 03:53:13;;;;;;;9.80;7.80;;;;;;;17.43;68.90;100739.06;1752040;81;21307;-76
2022/07/21 03:55:40;;;;;;;10.40;8.18;;;;;;;17.52;68.99;100738.05;1752253;81;21052;-77
2022/07/21 03:58:07;;;;;;;9.88;8.33;;;;;;;17.61;68.98;100739.28;1749705;81;21328;-74
2022/07/21 04:00:38;;;;;;;15.20;9.58;;;;;;;17.67;68.90;100742.88;1735728;81;21088;-75
2022/07/21 04:03:06;;;;;;;15.72;9.05;;;;;;;17.69;68.95;100737.02;1752300;81;20993;-76
2022/07/21 04:05:35;;;;;;;10.68;8.08;;;;;;;17.74;69.06;100742.89;1747325;81;21290;-75
2022/07/21 04:08:03;;;;;;;10.85;8.80;;;;;;;17.79;68.95;100736.88;1748827;81;21663;-77
2022/07/21 04:10:34;;;;;;;10.72;8.90;;;;;;;17.80;68.98;100735.92;1747086;81;21043;-78
2022/07/21 04:13:04;;;;;;;12.68;9.45;;;;;;;17.82;69.06;100736.69;1751445;81;20985;-75
2022/07/21 04:15:31;;;;;;;13.03;9.25;;;;;;;17.86;69.00;100736.01;1751009;81;21004;-75
2022/07/21 04:17:58;;;;;;;11.12;8.43;;;;;;;17.91;69.00;100741.03;1747537;81;21079;-75
2022/07/21 04:20:26;;;;;;;11.83;8.23;;;;;;;17.97;68.95;100744.14;1749983;81;21158;-75
2022/07/21 04:22:54;;;;;;;13.22;8.68;;;;;;;18.03;68.86;100741.10;1752518;81;21490;-75
2022/07/21 04:25:21;;;;;;;11.50;9.15;;;;;;;18.09;68.79;100742.52;1750548;81;21012;-76
2022/07/21 04:27:50;;;;;;;12.68;8.55;;;;;;;18.15;68.59;100741.28;1754619;80;21000;-75
2022/07/21 04:30:21;;;;;;;11.20;8.40;;;;;;;18.20;68.53;100748.00;1756789;81;22371;-76
2022/07/21 04:32:49;;;;;;;10.40;7.35;;;;;;;18.26;68.69;100739.67;1760595;81;21116;-75
2022/07/21 04:35:17;;;;;;;10.90;7.72;;;;;;;18.37;68.75;100743.42;1758480;81;21009;-75
2022/07/21 04:37:44;;;;;;;10.38;7.95;;;;;;;18.47;68.74;100749.84;1759084;81;21027;-74
2022/07/21 04:40:14;;;;;;;9.30;7.58;;;;;;;18.54;68.52;100748.52;1756408;81;21382;-75
2022/07/21 04:42:42;;;;;;;10.50;8.03;;;;;;;18.62;68.45;100747.99;1761587;81;21585;-75
2022/07/21 04:45:13;;;;;;;13.58;9.83;;;;;;;18.71;68.46;100748.74;1759296;81;21950;-77
2022/07/21 04:47:54;;;;;;;10.72;8.33;;;;;;;18.80;68.52;100748.64;1760753;81;21060;-76
2022/07/21 04:50:26;;;;;;;11.18;8.55;;;;;;;18.88;68.44;100746.33;1758713;81;20985;-78
2022/07/21 04:52:55;;;;;;;10.82;8.05;;;;;;;18.99;68.49;100749.61;1758234;81;21146;-74
2022/07/21 04:55:23;;;;;;;11.68;7.58;;;;;;;19.07;68.34;100755.27;1756178;81;21498;-74
2022/07/21 04:57:52;;;;;;;10.98;7.37;;;;;;;19.16;68.20;100756.81;1758833;81;21907;-74
2022/07/21 05:00:23;;;;;;;13.58;7.45;;;;;;;19.31;68.22;100750.08;1755441;81;21004;-75
2022/07/21 05:02:51;;;;;;;9.83;7.70;;;;;;;19.44;68.12;100742.13;1755178;81;21095;-74
2022/07/21 05:05:18;;;;;;;12.37;8.30;;;;;;;19.57;68.25;100733.20;1751913;81;21114;-74
2022/07/21 05:07:45;;;;;;;10.25;7.35;;;;;;;19.71;68.22;100733.60;1749799;81;21055;-75
2022/07/21 05:10:14;;;;;;;11.08;7.83;;;;;;;19.87;68.13;100733.84;1751484;81;21950;-75
2022/07/21 05:12:41;;;;;;;9.18;7.92;;;;;;;20.02;67.90;100732.77;1754690;81;20940;-74
2022/07/21 05:15:11;;;;;;;16.02;7.97;;;;;;;20.18;67.58;100733.86;1754202;81;20996;-74
2022/07/21 05:17:39;;;;;;;10.58;7.70;;;;;;;20.31;67.19;100731.98;1753502;81;21067;-73
2022/07/21 05:20:08;;;;;;;12.85;7.87;;;;;;;20.46;66.79;100731.36;1750209;81;21063;-75
2022/07/21 05:22:36;;;;;;;9.58;7.42;;;;;;;20.59;66.28;100740.65;1754110;81;21121;-75
2022/07/21 05:25:05;;;;;;;10.80;7.60;;;;;;;20.68;65.81;100739.99;1758364;81;20968;-74
2022/07/21 05:27:32;;;;;;;14.30;8.63;;;;;;;20.83;65.45;100752.16;1750432;81;21079;-74
2022/07/21 05:29:59;;;;;;;10.95;7.80;;;;;;;20.98;65.01;100755.97;1750482;81;21083;-74
2022/07/21 05:32:26;;;;;;;13.30;7.83;;;;;;;21.11;64.58;100754.92;1749923;81;20996;-74
2022/07/21 05:34:53;;;;;;;10.05;8.30;;;;;;;21.21;64.17;100752.43;1749261;81;22052;-74
2022/07/21 05:37:20;;;;;;;12.50;8.45;;;;;;;21.36;63.90;100756.58;1750872;81;21714;-75
2022/07/21 05:39:47;;;;;;;14.90;8.20;;;;;;;21.52;63.50;100758.11;1751117;81;21563;-75
2022/07/21 05:42:14;;;;;;;12.95;7.58;;;;;;;21.65;63.08;100758.86;1757340;81;21043;-76
2022/07/21 05:44:41;;;;;;;9.35;7.97;;;;;;;21.78;62.51;100758.27;1753005;81;21091;-76
2022/07/21 05:47:08;;;;;;;13.65;8.23;;;;;;;21.90;62.17;100766.28;1747289;81;21979;-75
2022/07/21 05:49:35;;;;;;;16.52;8.40;;;;;;;22.01;61.85;100763.13;1751839;81;21051;-75
2022/07/21 05:52:02;;;;;;;14.28;8.05;;;;;;;22.12;61.39;100767.61;1753986;81;21070;-75
2022/07/21 05:54:29;;;;;;;13.88;8.35;;;;;;;22.19;61.07;100759.48;1749162;81;22150;-76
2022/07/21 05:56:58;;;;;;;14.85;9.20;;;;;;;22.30;60.76;100764.46;1748839;81;21055;-77
2022/07/21 05:59:24;;;;;;;14.47;8.48;;;;;;;22.36;60.37;100754.12;1746020;81;21109;-76
2022/07/21 06:01:51;;;;;;;13.32;8.78;;;;;;;22.41;60.20;100749.27;1746128;81;21052;-75
2022/07/21 06:04:19;;;;;;;16.07;8.20;;;;;;;22.47;59.95;100747.91;1749784;81;21032;-75
2022/07/21 06:06:45;;;;;;;10.53;8.48;;;;;;;22.54;59.87;100755.80;1754571;81;21091;-76
2022/07/21 06:09:12;;;;;;;13.25;8.75;;;;;;;22.60;59.64;100753.11;1750494;81;21012;-82
2022/07/21 06:11:39;;;;;;;9.60;8.28;;;;;;;22.65;59.41;100757.59;1748288;81;21126;-81
2022/07/21 06:14:06;;;;;;;13.48;8.80;;;;;;;22.71;59.27;100751.25;1750371;81;21123;-75
2022/07/21 06:16:33;;;;;;;12.70;8.45;;;;;;;22.81;59.06;100749.14;1755395;81;21056;-75
2022/07/21 06:19:01;;;;;;;13.80;8.83;;;;;;;22.90;59.03;100739.05;1759068;81;21043;-77
2022/07/21 06:21:28;;;;;;;10.88;8.55;;;;;;;22.99;58.77;100740.12;1756084;81;21504;-76
2022/07/21 06:23:55;;;;;;;13.10;8.85;;;;;;;23.07;58.53;100734.98;1752296;81;21287;-76
2022/07/21 06:26:22;;;;;;;13.32;8.20;;;;;;;23.14;58.47;100739.69;1751520;81;21606;-76
2022/07/21 06:28:49;;;;;;;15.68;8.73;;;;;;;23.22;58.26;100741.69;1756123;80;21119;-77
2022/07/21 06:31:16;;;;;;;14.78;8.60;;;;;;;23.31;58.11;100746.28;1758051;81;21121;-76
2022/07/21 06:33:43;;;;;;;13.88;8.30;;;;;;;23.40;57.86;100743.80;1772723;79;21553;-76
2022/07/21 06:36:10;;;;;;;12.82;8.35;;;;;;;23.50;57.63;100744.22;1774809;78;21058;-76
2022/07/21 06:38:37;;;;;;;15.93;8.20;;;;;;;23.63;57.53;100746.66;1783384;79;21037;-76
2022/07/21 06:41:06;;;;;;;10.68;7.67;;;;;;;23.72;57.14;100733.88;1763292;79;21555;-82
2022/07/21 06:43:34;;;;;;;10.67;7.03;;;;;;;23.83;56.88;100732.91;1756278;81;21055;-77
2022/07/21 06:46:01;;;;;;;10.08;7.70;;;;;;;23.94;56.67;100732.81;1765321;81;21258;-78
2022/07/21 06:48:28;;;;;;;9.35;7.08;;;;;;;24.05;56.29;100735.88;1765570;81;21089;-74
2022/07/21 06:50:56;;;;;;;10.32;7.20;;;;;;;24.15;56.06;100740.79;1774681;79;21120;-80
2022/07/21 06:53:24;;;;;;;12.63;7.62;;;;;;;24.25;55.78;100739.00;1759624;79;21125;-75
2022/07/21 06:55:52;;;;;;;11.77;7.37;;;;;;;24.35;55.53;100736.83;1756260;81;21528;-76
2022/07/21 06:58:22;;;;;;;12.60;6.65;;;;;;;24.46;55.39;100730.03;1755324;81;21887;-75
2022/07/21 07:00:51;;;;;;;11.25;6.67;;;;;;;24.61;55.20;100734.02;1760848;81;21135;-76
2022/07/21 07:03:19;;;;;;;12.63;6.83;;;;;;;24.75;54.83;100725.19;1755078;81;21274;-76
2022/07/21 07:05:48;;;;;;;13.17;7.57;;;;;;;24.91;54.71;100716.09;1777045;79;21011;-75
2022/07/21 07:08:16;;;;;;;8.98;7.35;;;;;;;25.06;54.09;100722.72;1759807;81;21098;-75
2022/07/21 07:10:44;;;;;;;9.48;6.28;;;;;;;25.17;53.74;100725.78;1765602;81;21031;-75
2022/07/21 07:13:11;;;;;;;10.50;6.53;;;;;;;25.26;53.47;100729.44;1761500;81;21122;-75
2022/07/21 07:15:38;;;;;;;13.40;6.42;;;;;;;25.35;53.25;100728.06;1755624;80;21054;-76
2022/07/21 07:18:06;;;;;;;11.90;6.87;;;;;;;25.46;52.92;100725.70;1741967;81;22061;-76
2022/07/21 07:20:33;;;;;;;10.40;6.15;;;;;;;25.57;52.58;100723.34;1760764;80;21004;-76
2022/07/21 07:23:01;;;;;;;11.00;6.35;;;;;;;25.70;52.46;100719.84;1760686;81;38491;-76
2022/07/21 07:25:28;;;;;;;9.68;6.05;;;;;;;25.81;52.04;100717.48;1760693;81;22136;-76
2022/07/21 07:27:56;;;;;;;11.18;6.42;;;;;;;25.93;51.90;100724.37;1757742;81;21052;-76
2022/07/21 07:30:24;;;;;;;8.10;6.08;;;;;;;26.06;51.68;100726.72;1752678;81;21056;-76
2022/07/21 07:32:51;;;;;;;13.20;6.60;;;;;;;26.17;51.36;100733.23;1752573;81;21020;-76
2022/07/21 07:35:19;;;;;;;10.43;6.15;;;;;;;26.27;51.06;100726.44;1752742;81;20993;-76
2022/07/21 07:37:46;;;;;;;7.97;5.92;;;;;;;26.40;50.95;100716.69;1752981;81;21809;-76
2022/07/21 07:40:17;;;;;;;9.53;5.53;;;;;;;26.58;50.52;100712.21;1752645;81;21032;-76
2022/07/21 07:42:46;;;;;;;11.70;5.97;;;;;;;26.72;50.00;100724.78;1752864;81;20959;-80
2022/07/21 07:45:14;;;;;;;9.00;5.80;;;;;;;26.83;49.74;100724.04;1752825;81;21641;-76
2022/07/21 07:47:42;;;;;;;7.90;5.08;;;;;;;26.98;49.17;100734.24;1733355;81;21002;-80
2022/07/21 07:50:12;;;;;;;8.95;5.58;;;;;;;27.09;48.59;100734.84;1752148;81;21071;-76
2022/07/21 07:52:42;;;;;;;9.10;5.28;;;;;;;27.18;48.09;100728.20;1752947;81;21391;-77
2022/07/21 07:55:10;;;;;;;9.25;5.58;;;;;;;27.29;47.82;100730.64;1752808;81;21498;-76
2022/07/21 07:57:42;;;;;;;9.95;5.22;;;;;;;27.40;47.46;100734.92;1736878;81;21462;-77
2022/07/21 08:00:14;;;;;;;10.78;5.12;;;;;;;27.57;47.10;100727.28;1743933;81;21261;-77
2022/07/21 08:02:41;;;;;;;9.13;5.85;;;;;;;27.77;46.77;100726.58;1739345;81;21978;-80
2022/07/21 08:05:09;;;;;;;7.70;5.47;;;;;;;27.97;46.34;100725.86;1752832;81;20989;-77
2022/07/21 08:07:39;;;;;;;9.40;4.97;;;;;;;28.09;45.94;100722.36;1753151;81;20992;-77
2022/07/21 08:10:12;;;;;;;8.20;5.50;;;;;;;28.19;45.42;100722.56;1752932;81;21024;-77
2022/07/21 08:12:41;;;;;;;8.48;5.58;;;;;;;28.32;45.29;100724.77;1753038;81;22138;-77
2022/07/21 08:15:09;;;;;;;10.03;5.00;;;;;;;28.42;44.91;100719.25;1752969;81;21122;-77
2022/07/21 08:17:36;;;;;;;8.30;5.43;;;;;;;28.65;45.09;100711.39;1753292;81;21483;-76
2022/07/21 08:20:06;;;;;;;6.03;5.42;;;;;;;28.65;45.09;100711.39;1752781;81;21394;-78
2022/07/21 08:22:33;;;;;;;;;;;;;;;28.89;44.91;100715.97;1755655;81;20998;-76
2022/07/21 08:25:00;;;;;;;8.58;6.08;;;;;;;29.07;44.42;100713.11;1752938;80;21296;-77
2022/07/21 08:27:28;;;;;;;9.75;5.08;;;;;;;29.22;44.29;100712.77;1752148;81;21965;-77
2022/07/21 08:29:55;;;;;;;8.90;5.17;;;;;;;29.40;44.09;100710.38;1743047;81;20980;-76
2022/07/21 08:32:22;;;;;;;8.88;5.37;;;;;;;29.58;43.85;100710.50;1768963;81;21079;-77
2022/07/21 08:34:49;;;;;;;7.70;4.72;;;;;;;29.75;43.37;100709.13;1768509;81;21067;-77
2022/07/21 08:37:20;;;;;;;7.42;4.70;;;;;;;29.88;43.07;100705.37;1768913;80;21099;-78
2022/07/21 08:39:47;;;;;;;6.90;4.87;;;;;;;30.05;42.71;100699.38;1778492;80;21201;-77
2022/07/21 08:42:16;;;;;;;6.08;4.92;;;;;;;30.20;42.31;100701.64;1768597;81;21027;-77
2022/07/21 08:44:44;;;;;;;7.60;4.80;;;;;;;30.36;42.30;100689.09;1768628;81;21051;-77
2022/07/21 08:47:11;;;;;;;7.65;4.78;;;;;;;30.53;42.00;100696.59;1768655;81;20945;-77
2022/07/21 08:49:39;;;;;;;8.03;4.97;;;;;;;30.68;41.74;100692.92;1768512;81;21083;-77
2022/07/21 08:52:07;;;;;;;8.48;4.50;;;;;;;30.84;40.93;100689.77;1768624;80;21088;-77
2022/07/21 08:54:34;;;;;;;8.83;4.50;;;;;;;30.93;40.63;100686.48;1768594;81;20959;-77
2022/07/21 08:57:01;;;;;;;6.67;4.83;;;;;;;31.06;40.26;100682.64;1738155;81;21029;-83
2022/07/21 08:59:28;;;;;;;7.35;4.47;;;;;;;31.17;39.82;100680.83;1754985;81;21067;-77
2022/07/21 09:01:57;;;;;;;10.08;4.58;;;;;;;31.27;39.55;100675.16;1746387;80;21039;-77
2022/07/21 09:04:33;;;;;;;7.97;4.25;;;;;;;31.44;39.26;100669.09;1746063;81;21541;-77
2022/07/21 09:07:04;;;;;;;8.53;4.50;;;;;;;31.60;38.97;100677.55;1746928;81;20996;-77
2022/07/21 09:09:34;;;;;;;9.85;4.83;;;;;;;31.74;38.62;100684.30;1765857;81;21047;-78
2022/07/21 09:12:03;;;;;;;8.23;4.35;;;;;;;31.88;38.23;100681.25;1753210;81;21008;-77
2022/07/21 09:14:33;;;;;;;10.82;5.17;;;;;;;32.02;38.09;100685.52;1753315;81;21112;-77
2022/07/21 09:17:04;;;;;;;7.50;4.55;;;;;;;32.17;37.83;100679.52;1768599;80;22121;-77
2022/07/21 09:19:38;;;;;;;10.00;5.55;;;;;;;32.27;37.43;100679.23;1760756;81;21027;-77
2022/07/21 09:22:14;;;;;;;7.58;4.00;;;;;;;32.30;36.92;100672.89;1757356;81;21035;-77
2022/07/21 09:24:41;;;;;;;6.50;4.22;;;;;;;32.32;36.60;100670.00;1768842;81;21008;-77
2022/07/21 09:27:21;;;;;;;5.62;3.72;;;;;;;32.37;36.35;100669.74;1768677;81;21449;-77
2022/07/21 09:29:55;;;;;;;5.20;3.92;;;;;;;32.49;36.42;100674.16;1762331;80;21096;-77
2022/07/21 09:32:36;;;;;;;7.90;4.62;;;;;;;32.65;35.83;100660.86;1764183;81;21038;-76
2022/07/21 09:35:14;;;;;;;6.15;4.65;;;;;;;32.76;35.64;100670.32;1757688;80;21107;-77
2022/07/21 09:37:42;;;;;;;4.60;3.92;;;;;;;32.86;35.36;100659.45;1749676;81;21043;-84
2022/07/21 09:40:14;;;;;;;5.55;3.87;;;;;;;32.98;34.96;100661.63;1746470;80;21541;-86
2022/07/21 09:42:45;;;;;;;6.42;4.03;;;;;;;33.08;34.71;100656.73;1762391;79;21182;-78
2022/07/21 09:45:16;;;;;;;7.97;3.95;;;;;;;33.27;34.63;100656.55;1767228;79;21053;-83
2022/07/21 09:47:47;;;;;;;7.10;3.70;;;;;;;33.44;34.11;100652.98;1759497;81;21015;-83
2022/07/21 09:50:17;;;;;;;7.22;4.05;;;;;;;33.56;34.16;100660.07;1739125;80;21018;-77
2022/07/21 09:52:46;;;;;;;8.15;4.20;;;;;;;33.74;34.00;100653.58;1777520;79;21042;-84
2022/07/21 09:55:16;;;;;;;6.00;4.10;;;;;;;33.92;33.64;100654.37;1794877;79;21088;-76
2022/07/21 09:57:45;;;;;;;6.72;4.12;;;;;;;34.08;33.29;100649.95;1748119;80;21047;-76
2022/07/21 10:00:17;;;;;;;8.68;4.28;;;;;;;34.20;32.84;100652.41;1773570;79;21070;-76
2022/07/21 10:02:46;;;;;;;6.22;4.12;;;;;;;34.29;32.57;100648.14;1742774;81;21058;-75
2022/07/21 10:05:18;;;;;;;7.22;4.20;;;;;;;34.40;32.44;100639.36;1780656;80;26411;-75
2022/07/21 10:07:48;;;;;;;6.03;3.83;;;;;;;34.56;31.97;100644.44;1777305;79;21123;-77
2022/07/21 10:10:17;;;;;;;7.03;4.00;;;;;;;34.67;31.72;100646.20;1761135;81;21027;-76
2022/07/21 10:12:46;;;;;;;5.53;3.67;;;;;;;34.75;31.44;100645.98;1760826;81;21031;-76
2022/07/21 10:15:13;;;;;;;8.80;4.00;;;;;;;34.80;30.80;100639.39;1761035;81;21554;-75
2022/07/21 10:17:41;;;;;;;5.35;3.87;;;;;;;34.81;30.39;100639.73;1760928;80;21249;-76
2022/07/21 10:20:25;;;;;;;6.47;3.98;;;;;;;34.80;30.20;100643.48;1761073;81;21111;-76
2022/07/21 10:23:23;;;;;;;7.28;4.00;;;;;;;34.91;30.21;100644.73;1760860;80;21040;-76
2022/07/21 10:25:50;;;;;;;6.60;4.00;;;;;;;35.10;30.31;100640.34;1760957;81;21043;-76
2022/07/21 10:28:27;;;;;;;5.37;4.00;;;;;;;35.34;30.17;100634.22;1759954;80;21028;-83
2022/07/21 10:30:57;;;;;;;7.70;4.12;;;;;;;35.58;29.94;100629.95;1763850;80;21069;-79
2022/07/21 10:33:49;;;;;;;7.78;3.50;;;;;;;35.77;29.66;100632.81;1733337;81;21108;-77
2022/07/21 10:36:37;;;;;;;5.80;3.58;;;;;;;35.93;28.96;100633.15;1761966;81;21030;-85
2022/07/21 10:39:14;;;;;;;5.97;3.40;;;;;;;36.12;28.41;100630.57;1775837;78;21116;-81
2022/07/21 10:41:53;;;;;;;8.33;4.00;;;;;;;36.24;27.94;100625.23;1786175;78;21032;-80
2022/07/21 10:44:31;;;;;;;5.75;3.72;;;;;;;36.40;27.75;100618.70;1776358;78;21058;-76
2022/07/21 10:47:20;;;;;;;5.30;3.70;;;;;;;36.57;27.43;100620.92;1769319;79;22103;-78
2022/07/21 10:49:54;;;;;;;8.18;4.05;;;;;;;36.78;27.38;100622.44;1795433;78;21481;-78
2022/07/21 10:52:42;;;;;;;5.67;3.42;;;;;;;37.11;27.26;100622.64;1795653;79;21047;-76
2022/07/21 10:55:29;;;;;;;5.72;4.05;;;;;;;37.32;26.74;100628.20;1795610;79;21995;-79
2022/07/21 10:58:14;;;;;;;6.15;3.70;;;;;;;37.53;26.62;100622.31;1779247;78;21033;-81
2022/07/21 11:01:00;;;;;;;7.28;3.90;;;;;;;37.77;26.25;100621.05;1787722;78;21229;-84
2022/07/21 11:03:38;;;;;;;6.85;3.90;;;;;;;37.99;25.96;100620.05;1795889;79;20960;-77
2022/07/21 11:06:25;;;;;;;5.95;3.77;;;;;;;38.15;25.86;100618.84;1790267;78;20976;-77
2022/07/21 11:09:06;;;;;;;7.87;3.90;;;;;;;38.43;25.79;100606.98;1795708;78;21610;-77
2022/07/21 11:11:47;;;;;;;7.55;3.75;;;;;;;38.67;25.42;100605.94;1795555;78;21063;-77
2022/07/21 11:14:20;;;;;;;7.35;3.70;;;;;;;38.73;25.16;100603.61;1767540;78;21097;-77
2022/07/21 11:16:53;;;;;;;5.90;3.30;;;;;;;38.95;25.26;100613.45;1781080;78;22000;-81
2022/07/21 11:19:52;;;;;;;10.82;3.90;;;;;;;39.11;25.03;100610.53;1795353;79;21055;-79
2022/07/21 11:22:20;;;;;;;4.80;3.83;;;;;;;39.12;24.70;100601.77;1764597;78;21052;-78
2022/07/21 11:25:08;;;;;;;6.92;3.83;;;;;;;39.29;24.61;100602.68;1763400;79;21064;-79
2022/07/21 11:27:40;;;;;;;5.47;3.52;;;;;;;39.48;24.50;100597.89;1766626;79;21144;-77
2022/07/21 11:30:09;;;;;;;6.22;3.45;;;;;;;39.73;24.22;100604.42;1761013;80;21034;-76
2022/07/21 11:32:37;;;;;;;6.35;3.77;;;;;;;39.75;23.85;100596.78;1763894;80;20988;-76
2022/07/21 11:35:06;;;;;;;4.92;3.17;;;;;;;39.86;23.65;100587.70;1773420;80;21054;-76